createdAt,value
2023-03-28T00:01:20.396Z,86.27
2023-03-28T00:03:46.936Z,86.36
2023-03-28T00:06:18.632Z,86.80
2023-03-28T00:08:47.276Z,86.85
2023-03-28T00:11:19.164Z,86.71
2023-03-28T00:14:03.578Z,86.47
2023-03-28T00:16:33.372Z,86.54
2023-03-28T00:19:02.229Z,86.73
2023-03-28T00:21:31.448Z,87.38
2023-03-28T00:24:01.876Z,87.80
2023-03-28T00:26:32.366Z,87.92
2023-03-28T00:29:01.215Z,88.37
2023-03-28T00:31:28.829Z,88.87
2023-03-28T00:33:56.223Z,88.85
2023-03-28T00:36:26.420Z,88.94
2023-03-28T00:38:53.919Z,89.74
2023-03-28T00:41:24.617Z,90.48
2023-03-28T00:43:54.688Z,91.24
2023-03-28T00:46:39.676Z,91.78
2023-03-28T00:49:13.350Z,92.91
2023-03-28T00:51:44.669Z,93.61
2023-03-28T00:54:17.195Z,94.21
2023-03-28T00:56:52.543Z,94.95
2023-03-28T00:59:21.462Z,95.97
2023-03-28T01:01:49.164Z,96.26
2023-03-28T01:04:20.410Z,96.35
2023-03-28T01:06:54.772Z,96.59
2023-03-28T01:09:24.161Z,95.99
2023-03-28T01:11:54.856Z,95.65
2023-03-28T01:14:26.508Z,95.40
2023-03-28T01:17:02.385Z,95.19
2023-03-28T01:19:33.563Z,94.96
2023-03-28T01:22:33.254Z,94.81
2023-03-28T01:25:29.067Z,94.78
2023-03-28T01:28:04.645Z,93.48
2023-03-28T01:31:07.729Z,93.14
2023-03-28T01:34:00.260Z,93.05
2023-03-28T01:36:53.627Z,93.14
2023-03-28T01:39:35.068Z,92.61
2023-03-28T01:42:28.974Z,93.50
2023-03-28T01:45:23.806Z,92.40
2023-03-28T01:48:16.358Z,93.00
2023-03-28T01:50:49.575Z,93.34
2023-03-28T01:53:28.627Z,93.52
2023-03-28T01:56:03.723Z,93.64
2023-03-28T01:58:48.521Z,93.91
2023-03-28T02:01:36.598Z,94.49
2023-03-28T02:04:20.466Z,94.42
2023-03-28T02:06:58.298Z,94.90
2023-03-28T02:09:32.323Z,94.88
2023-03-28T02:12:13.177Z,94.72
2023-03-28T02:14:58.487Z,94.57
2023-03-28T02:18:04.795Z,94.67
2023-03-28T02:21:02.614Z,94.90
2023-03-28T02:23:52.205Z,95.13
2023-03-28T02:26:41.506Z,94.42
2023-03-28T02:29:36.780Z,94.44
2023-03-28T02:32:14.588Z,94.35
2023-03-28T02:34:44.681Z,94.92
2023-03-28T02:38:00.534Z,94.88
2023-03-28T02:40:52.255Z,94.55
2023-03-28T02:43:41.676Z,95.33
2023-03-28T02:46:11.227Z,94.84
2023-03-28T02:49:06.042Z,94.57
2023-03-28T02:51:40.563Z,94.76
2023-03-28T02:54:15.660Z,94.95
2023-03-28T02:57:03.071Z,94.98
2023-03-28T02:59:46.323Z,95.28
2023-03-28T03:02:19.081Z,95.77
2023-03-28T03:04:46.656Z,95.75
2023-03-28T03:07:13.727Z,96.10
2023-03-28T03:09:40.472Z,96.08
2023-03-28T03:12:07.457Z,96.53
2023-03-28T03:14:34.587Z,96.05
2023-03-28T03:17:21.057Z,96.25
2023-03-28T03:19:48.342Z,96.19
2023-03-28T03:22:21.043Z,96.53
2023-03-28T03:24:51.297Z,96.08
2023-03-28T03:27:18.880Z,96.42
2023-03-28T03:29:46.136Z,96.17
2023-03-28T03:32:15.508Z,96.08
2023-03-28T03:34:53.799Z,96.32
2023-03-28T03:37:20.713Z,95.96
2023-03-28T03:39:47.168Z,95.48
2023-03-28T03:42:16.623Z,95.55
2023-03-28T03:44:43.160Z,95.78
2023-03-28T03:47:10.586Z,95.84
2023-03-28T03:49:37.097Z,95.59
2023-03-28T03:52:05.650Z,95.78
2023-03-28T03:54:32.094Z,96.14
2023-03-28T03:56:59.993Z,96.18
2023-03-28T03:59:27.730Z,95.93
2023-03-28T04:01:55.996Z,95.25
2023-03-28T04:04:26.062Z,95.15
2023-03-28T04:07:05.172Z,95.38
2023-03-28T04:09:32.854Z,95.58
2023-03-28T04:12:03.814Z,95.35
2023-03-28T04:14:31.845Z,95.12
2023-03-28T04:17:23.589Z,94.81
2023-03-28T04:19:50.431Z,94.78
2023-03-28T04:22:18.252Z,94.55
2023-03-28T04:24:53.454Z,94.17
2023-03-28T04:27:35.106Z,94.86
2023-03-28T04:30:02.894Z,94.95
2023-03-28T04:33:04.250Z,94.96
2023-03-28T04:35:36.848Z,94.74
2023-03-28T04:38:03.561Z,95.00
2023-03-28T04:40:30.153Z,94.82
2023-03-28T04:43:20.428Z,95.25
2023-03-28T04:45:51.126Z,94.96
2023-03-28T04:48:17.678Z,94.36
2023-03-28T04:50:44.304Z,94.27
2023-03-28T04:53:13.072Z,94.43
2023-03-28T04:55:54.113Z,94.76
2023-03-28T04:58:24.888Z,94.85
2023-03-28T05:00:51.422Z,94.62
2023-03-28T05:03:53.110Z,94.67
2023-03-28T05:06:19.804Z,94.64
2023-03-28T05:08:46.484Z,95.04
2023-03-28T05:11:14.159Z,95.74
2023-03-28T05:13:40.963Z,95.81
2023-03-28T05:16:17.086Z,96.14
2023-03-28T05:19:13.027Z,95.91
2023-03-28T05:22:01.879Z,95.66
2023-03-28T05:24:29.558Z,95.95
2023-03-28T05:26:56.672Z,95.97
2023-03-28T05:29:24.167Z,95.01
2023-03-28T05:31:51.913Z,94.87
2023-03-28T05:34:30.280Z,95.61
2023-03-28T05:36:57.872Z,95.15
2023-03-28T05:39:28.826Z,95.32
2023-03-28T05:42:02.020Z,94.50
2023-03-28T05:44:28.518Z,94.19
2023-03-28T05:47:13.710Z,93.02
2023-03-28T05:49:40.393Z,93.22
2023-03-28T05:52:07.079Z,92.04
2023-03-28T05:54:33.924Z,92.17
2023-03-28T05:57:00.413Z,92.15
2023-03-28T05:59:28.295Z,91.50
2023-03-28T06:01:55.371Z,90.35
2023-03-28T06:04:23.609Z,89.86
2023-03-28T06:06:51.554Z,88.59
2023-03-28T06:09:24.371Z,88.02
2023-03-28T06:11:57.866Z,87.32
2023-03-28T06:14:24.635Z,87.45
2023-03-28T06:16:53.170Z,86.28
2023-03-28T06:19:20.739Z,86.34
2023-03-28T06:21:53.968Z,85.65
2023-03-28T06:24:21.168Z,86.00
2023-03-28T06:26:47.811Z,85.46
2023-03-28T06:29:19.788Z,85.37
2023-03-28T06:31:48.603Z,85.31
2023-03-28T06:34:15.204Z,85.62
2023-03-28T06:36:50.987Z,85.31
2023-03-28T06:39:17.577Z,85.41
2023-03-28T06:41:44.605Z,84.76
2023-03-28T06:44:11.271Z,85.76
2023-03-28T06:46:59.834Z,84.89
2023-03-28T06:49:26.975Z,84.63
2023-03-28T06:52:24.881Z,85.05
2023-03-28T06:54:52.854Z,84.25
2023-03-28T06:57:19.311Z,83.84
2023-03-28T06:59:48.209Z,82.85
2023-03-28T07:02:21.114Z,83.14
2023-03-28T07:04:48.170Z,82.10
2023-03-28T07:07:15.263Z,81.90
2023-03-28T07:09:41.980Z,81.16
2023-03-28T07:12:11.164Z,81.70
2023-03-28T07:14:38.382Z,82.08
2023-03-28T07:17:05.266Z,82.09
2023-03-28T07:19:32.402Z,82.10
2023-03-28T07:21:59.168Z,81.29
2023-03-28T07:24:26.096Z,81.29
2023-03-28T07:29:35.376Z,80.78
2023-03-28T07:32:03.521Z,80.65
2023-03-28T07:34:30.299Z,80.51
2023-03-28T07:36:58.742Z,80.43
2023-03-28T07:39:45.978Z,79.00
2023-03-28T07:42:16.767Z,78.89
2023-03-28T07:44:43.189Z,78.83
2023-03-28T07:47:09.924Z,79.36
2023-03-28T07:49:36.442Z,78.79
2023-03-28T07:52:03.819Z,78.78
2023-03-28T07:54:33.142Z,78.74
2023-03-28T07:57:00.533Z,79.16
2023-03-28T07:59:46.662Z,78.70
2023-03-28T08:02:13.988Z,79.11
2023-03-28T08:04:40.514Z,78.82
2023-03-28T08:07:09.671Z,77.96
2023-03-28T08:09:38.428Z,77.47
2023-03-28T08:12:11.853Z,77.04
2023-03-28T08:14:38.325Z,77.57
2023-03-28T08:17:06.266Z,76.18
2023-03-28T08:19:32.858Z,75.36
2023-03-28T08:22:19.223Z,75.63
2023-03-28T08:24:52.598Z,75.68
2023-03-28T08:27:22.892Z,75.18
2023-03-28T08:29:53.288Z,73.85
2023-03-28T08:32:20.029Z,74.09
2023-03-28T08:34:47.012Z,73.61
2023-03-28T08:37:17.209Z,73.72
2023-03-28T08:39:47.307Z,72.79
2023-03-28T08:42:36.332Z,72.96
2023-03-28T08:45:12.366Z,72.64
2023-03-28T08:47:51.747Z,73.14
2023-03-28T08:50:31.263Z,72.41
2023-03-28T08:52:59.430Z,72.58
2023-03-28T08:55:29.135Z,72.77
2023-03-28T08:57:56.485Z,73.29
2023-03-28T09:00:31.003Z,72.76
2023-03-28T09:02:58.684Z,73.03
2023-03-28T09:06:11.405Z,73.30
2023-03-28T09:09:01.577Z,71.86
2023-03-28T09:11:45.392Z,71.55
2023-03-28T09:14:49.043Z,71.40
2023-03-28T09:17:51.826Z,70.72
2023-03-28T09:20:28.391Z,70.46
2023-03-28T09:23:27.487Z,69.84
2023-03-28T09:26:17.305Z,69.53
2023-03-28T09:29:06.416Z,69.81
2023-03-28T09:31:40.932Z,68.54
2023-03-28T09:34:18.671Z,68.72
2023-03-28T09:36:49.696Z,69.39
2023-03-28T09:39:32.584Z,69.34
2023-03-28T09:42:13.252Z,69.60
2023-03-28T09:44:57.210Z,68.33
2023-03-28T09:47:53.611Z,65.85
2023-03-28T09:50:24.606Z,65.40
2023-03-28T09:52:57.956Z,65.23
2023-03-28T09:55:27.009Z,63.94
2023-03-28T09:58:08.328Z,63.82
2023-03-28T10:00:55.182Z,64.51
2023-03-28T10:04:28.192Z,64.19
2023-03-28T10:07:13.316Z,64.15
2023-03-28T10:09:51.344Z,62.19
2023-03-28T10:12:31.985Z,61.69
2023-03-28T10:14:58.644Z,61.28
2023-03-28T10:17:54.423Z,60.82
2023-03-28T10:20:27.769Z,60.25
2023-03-28T10:22:59.383Z,59.62
2023-03-28T10:25:38.602Z,58.80
2023-03-28T10:28:07.284Z,59.99
2023-03-28T10:30:37.068Z,58.65
2023-03-28T10:33:23.388Z,58.95
2023-03-28T10:36:29.282Z,59.90
2023-03-28T10:38:58.363Z,60.37
2023-03-28T10:41:30.709Z,61.40
2023-03-28T10:44:18.765Z,59.90
2023-03-28T10:47:18.047Z,59.57
2023-03-28T10:50:19.897Z,58.22
2023-03-28T10:53:24.241Z,56.52
2023-03-28T10:56:14.176Z,54.61
2023-03-28T10:58:50.942Z,54.81
2023-03-28T11:01:35.110Z,52.45
2023-03-28T11:04:14.200Z,51.98
2023-03-28T11:06:51.557Z,52.29
2023-03-28T11:09:31.554Z,52.00
2023-03-28T11:12:55.609Z,50.43
2023-03-28T11:15:45.744Z,51.06
2023-03-28T11:18:31.939Z,51.13
2023-03-28T11:21:08.700Z,51.96
2023-03-28T11:23:53.742Z,49.22
2023-03-28T11:27:12.675Z,50.47
2023-03-28T11:29:54.701Z,50.18
2023-03-28T11:32:30.705Z,50.32
2023-03-28T11:35:07.068Z,50.38
2023-03-28T11:37:47.771Z,49.97
2023-03-28T11:40:23.369Z,48.92
2023-03-28T11:43:02.006Z,48.61
2023-03-28T11:45:50.399Z,48.45
2023-03-28T11:48:29.086Z,48.33
2023-03-28T11:51:18.336Z,47.44
2023-03-28T11:53:53.985Z,48.00
2023-03-28T11:56:43.368Z,46.50
2023-03-28T11:59:21.078Z,42.83
2023-03-28T12:01:54.835Z,41.89
2023-03-28T12:04:28.137Z,43.44
2023-03-28T12:07:30.320Z,45.21
2023-03-28T12:10:26.336Z,44.31
2023-03-28T12:13:11.579Z,45.38
2023-03-28T12:15:50.612Z,44.71
2023-03-28T12:18:44.849Z,45.42
2023-03-28T12:21:32.159Z,44.70
2023-03-28T12:24:18.923Z,43.16
2023-03-28T12:27:15.888Z,42.23
2023-03-28T12:29:58.198Z,43.39
2023-03-28T12:32:36.518Z,43.03
2023-03-28T12:35:33.609Z,42.46
2023-03-28T12:38:32.205Z,42.11
2023-03-28T12:41:19.207Z,43.37
2023-03-28T12:44:04.730Z,44.26
2023-03-28T12:46:47.563Z,43.60
2023-03-28T12:49:46.281Z,42.43
2023-03-28T12:52:31.057Z,42.80
2023-03-28T12:55:07.968Z,41.95
2023-03-28T12:57:46.816Z,41.52
2023-03-28T13:00:41.821Z,43.29
2023-03-28T13:03:42.012Z,45.35
2023-03-28T13:06:13.955Z,44.77
2023-03-28T13:09:17.048Z,47.06
2023-03-28T13:11:56.425Z,46.76
2023-03-28T13:14:35.665Z,47.43
2023-03-28T13:17:26.556Z,47.21
2023-03-28T13:20:10.490Z,46.42
2023-03-28T13:23:01.920Z,45.19
2023-03-28T13:25:32.128Z,45.55
2023-03-28T13:28:05.107Z,45.89
2023-03-28T13:30:32.325Z,45.49
2023-03-28T13:33:04.016Z,46.05
2023-03-28T13:36:10.438Z,44.19
2023-03-28T13:38:55.491Z,44.56
2023-03-28T13:41:35.889Z,45.53
2023-03-28T13:44:10.363Z,45.37
2023-03-28T13:46:42.300Z,44.23
2023-03-28T13:49:24.122Z,45.08
2023-03-28T13:51:58.980Z,46.09
2023-03-28T13:54:28.277Z,46.32
2023-03-28T13:57:02.192Z,47.80
2023-03-28T13:59:44.041Z,47.83
2023-03-28T14:02:18.457Z,48.22
2023-03-28T14:04:57.096Z,47.08
2023-03-28T14:07:28.429Z,46.39
2023-03-28T14:09:58.776Z,46.60
2023-03-28T14:12:29.691Z,47.09
2023-03-28T14:14:58.879Z,47.03
2023-03-28T14:17:33.539Z,47.73
2023-03-28T14:20:05.724Z,47.03
2023-03-28T14:22:43.257Z,47.66
2023-03-28T14:25:21.430Z,47.43
2023-03-28T14:27:56.540Z,47.69
2023-03-28T14:30:37.635Z,47.60
2023-03-28T14:33:18.819Z,46.89
2023-03-28T14:35:56.060Z,46.92
2023-03-28T14:38:32.124Z,46.62
2023-03-28T14:41:07.298Z,47.36
2023-03-28T14:43:34.326Z,47.91
2023-03-28T14:46:08.305Z,47.33
2023-03-28T14:48:36.825Z,46.70
2023-03-28T14:51:05.734Z,46.37
2023-03-28T14:53:40.511Z,45.76
2023-03-28T14:56:11.063Z,45.63
2023-03-28T14:58:40.573Z,46.22
2023-03-28T15:01:10.528Z,46.78
2023-03-28T15:03:41.795Z,45.47
2023-03-28T15:06:14.944Z,45.82
2023-03-28T15:08:41.936Z,45.74
2023-03-28T15:11:12.520Z,46.86
2023-03-28T15:13:41.413Z,46.56
2023-03-28T15:16:08.512Z,45.95
2023-03-28T15:18:46.969Z,46.84
2023-03-28T15:21:14.965Z,46.62
2023-03-28T15:23:49.102Z,47.33
2023-03-28T15:26:34.282Z,47.26
2023-03-28T15:29:00.956Z,46.14
2023-03-28T15:31:28.206Z,47.55
2023-03-28T15:33:55.321Z,47.35
2023-03-28T15:36:32.259Z,47.38
2023-03-28T15:39:18.493Z,47.65
2023-03-28T15:41:46.632Z,47.29
2023-03-28T15:44:38.499Z,47.16
2023-03-28T15:47:21.302Z,47.50
2023-03-28T15:49:49.139Z,47.98
2023-03-28T15:52:19.325Z,47.79
2023-03-28T15:54:52.161Z,47.90
2023-03-28T15:57:21.948Z,47.67
2023-03-28T15:59:51.242Z,49.25
2023-03-28T16:02:24.706Z,48.64
2023-03-28T16:05:09.490Z,47.82
2023-03-28T16:07:46.306Z,48.56
2023-03-28T16:10:21.219Z,49.04
2023-03-28T16:13:14.267Z,48.68
2023-03-28T16:16:18.798Z,48.95
2023-03-28T16:18:54.173Z,48.47
2023-03-28T16:21:21.626Z,48.95
2023-03-28T16:23:48.145Z,48.63
2023-03-28T16:26:14.915Z,49.36
2023-03-28T16:28:41.454Z,49.72
2023-03-28T16:31:13.639Z,49.84
2023-03-28T16:33:40.184Z,50.40
2023-03-28T16:36:07.243Z,50.25
2023-03-28T16:38:33.694Z,50.19
2023-03-28T16:41:00.161Z,50.56
2023-03-28T16:43:28.614Z,51.03
2023-03-28T16:45:55.465Z,51.55
2023-03-28T16:48:22.316Z,50.88
2023-03-28T16:50:53.893Z,51.29
2023-03-28T16:53:21.283Z,51.30
2023-03-28T16:55:48.245Z,51.32
2023-03-28T16:58:14.670Z,52.30
2023-03-28T17:00:44.470Z,52.06
2023-03-28T17:03:11.170Z,52.68
2023-03-28T17:05:38.421Z,53.01
2023-03-28T17:08:05.292Z,52.72
2023-03-28T17:10:31.816Z,52.91
2023-03-28T17:13:02.678Z,53.07
2023-03-28T17:15:33.864Z,53.63
2023-03-28T17:18:01.198Z,53.98
2023-03-28T17:20:29.443Z,54.06
2023-03-28T17:22:56.518Z,54.25
2023-03-28T17:25:23.709Z,54.40
2023-03-28T17:27:50.472Z,54.82
2023-03-28T17:30:17.022Z,54.94
2023-03-28T17:32:43.597Z,55.23
2023-03-28T17:35:11.992Z,55.40
2023-03-28T17:37:39.948Z,55.13
2023-03-28T17:40:07.042Z,55.55
2023-03-28T17:42:33.665Z,55.94
2023-03-28T17:45:00.358Z,56.12
2023-03-28T17:47:27.842Z,55.98
2023-03-28T17:49:56.929Z,55.94
2023-03-28T17:52:24.695Z,56.60
2023-03-28T17:54:51.618Z,56.78
2023-03-28T17:57:18.481Z,56.67
2023-03-28T17:59:45.073Z,56.47
2023-03-28T18:02:11.568Z,57.01
2023-03-28T18:04:38.074Z,56.96
2023-03-28T18:07:17.233Z,56.84
2023-03-28T18:09:44.827Z,56.89
2023-03-28T18:12:12.521Z,57.10
2023-03-28T18:14:39.223Z,57.56
2023-03-28T18:17:06.124Z,57.47
2023-03-28T18:19:32.556Z,57.84
2023-03-28T18:21:59.081Z,57.55
2023-03-28T18:24:26.822Z,57.59
2023-03-28T18:26:53.583Z,57.64
2023-03-28T18:29:20.463Z,58.24
2023-03-28T18:31:47.223Z,58.32
2023-03-28T18:34:13.796Z,58.29
2023-03-28T18:36:43.830Z,58.21
2023-03-28T18:39:10.416Z,58.34
2023-03-28T18:41:37.198Z,58.54
2023-03-28T18:44:04.616Z,58.72
2023-03-28T18:46:31.360Z,58.81
2023-03-28T18:49:02.725Z,59.16
2023-03-28T18:51:29.268Z,59.11
2023-03-28T18:53:56.674Z,59.33
2023-03-28T18:56:23.902Z,59.25
2023-03-28T18:58:50.581Z,59.76
2023-03-28T19:01:19.288Z,60.08
2023-03-28T19:03:47.149Z,59.78
2023-03-28T19:06:15.680Z,59.64
2023-03-28T19:08:43.556Z,59.17
2023-03-28T19:11:13.292Z,59.59
2023-03-28T19:13:41.429Z,60.27
2023-03-28T19:16:10.704Z,60.22
2023-03-28T19:18:42.795Z,60.13
2023-03-28T19:21:11.513Z,60.50
2023-03-28T19:23:38.281Z,60.40
2023-03-28T19:26:10.913Z,60.46
2023-03-28T19:28:39.034Z,59.92
2023-03-28T19:31:07.540Z,60.42
2023-03-28T19:33:35.552Z,60.25
2023-03-28T19:36:02.391Z,61.06
2023-03-28T19:38:30.902Z,60.36
2023-03-28T19:41:02.444Z,60.94
2023-03-28T19:43:30.213Z,60.98
2023-03-28T19:46:04.871Z,61.08
2023-03-28T19:48:32.766Z,61.09
2023-03-28T19:50:59.257Z,60.80
2023-03-28T19:53:25.950Z,61.23
2023-03-28T19:55:58.883Z,60.87
2023-03-28T19:58:26.448Z,60.90
2023-03-28T20:00:53.112Z,61.23
2023-03-28T20:03:19.548Z,61.53
2023-03-28T20:05:47.806Z,61.77
2023-03-28T20:08:15.957Z,61.83
2023-03-28T20:10:46.204Z,61.85
2023-03-28T20:13:13.058Z,62.16
2023-03-28T20:15:42.046Z,62.72
2023-03-28T20:18:10.353Z,62.53
2023-03-28T20:20:38.903Z,62.99
2023-03-28T20:23:06.846Z,63.16
2023-03-28T20:25:34.141Z,63.06
2023-03-28T20:28:05.205Z,63.26
2023-03-28T20:30:32.073Z,63.29
2023-03-28T20:32:59.170Z,63.70
2023-03-28T20:35:27.175Z,63.80
2023-03-28T20:37:54.527Z,64.29
2023-03-28T20:40:25.216Z,64.06
2023-03-28T20:42:52.508Z,64.50
2023-03-28T20:45:23.522Z,64.57
2023-03-28T20:47:58.825Z,64.56
2023-03-28T20:50:33.960Z,64.86
2023-03-28T20:53:03.084Z,65.18
2023-03-28T20:55:31.247Z,65.28
2023-03-28T20:57:58.591Z,65.28
2023-03-28T21:00:25.884Z,65.63
2023-03-28T21:02:53.723Z,65.74
2023-03-28T21:05:22.497Z,65.93
2023-03-28T21:07:49.420Z,66.05
2023-03-28T21:10:16.633Z,66.31
2023-03-28T21:12:47.317Z,66.72
2023-03-28T21:15:15.205Z,66.39
2023-03-28T21:17:42.001Z,66.69
2023-03-28T21:20:10.350Z,66.28
2023-03-28T21:22:40.822Z,66.56
2023-03-28T21:25:08.020Z,66.94
2023-03-28T21:27:36.662Z,67.24
2023-03-28T21:30:07.756Z,66.90
2023-03-28T21:32:35.133Z,67.45
2023-03-28T21:35:03.849Z,67.29
2023-03-28T21:37:30.436Z,67.50
2023-03-28T21:39:57.031Z,67.33
2023-03-28T21:42:23.999Z,67.60
2023-03-28T21:44:51.001Z,67.42
2023-03-28T21:47:17.414Z,67.48
2023-03-28T21:49:45.887Z,66.99
2023-03-28T21:52:12.782Z,66.81
2023-03-28T21:54:39.242Z,66.49
2023-03-28T21:57:05.938Z,65.99
2023-03-28T21:59:32.511Z,65.81
2023-03-28T22:01:59.213Z,65.26
2023-03-28T22:04:27.846Z,65.03
2023-03-28T22:06:55.403Z,64.75
2023-03-28T22:09:21.846Z,64.96
2023-03-28T22:11:48.853Z,64.83
2023-03-28T22:14:15.348Z,64.81
2023-03-28T22:16:41.793Z,64.80
2023-03-28T22:19:09.573Z,64.59
2023-03-28T22:21:36.945Z,64.52
2023-03-28T22:24:06.142Z,65.03
2023-03-28T22:26:32.619Z,64.59
2023-03-28T22:28:59.467Z,64.62
2023-03-28T22:31:26.345Z,64.45
2023-03-28T22:33:53.624Z,64.57
2023-03-28T22:36:20.719Z,64.37
2023-03-28T22:38:47.210Z,64.48
2023-03-28T22:41:13.771Z,64.17
2023-03-28T22:43:42.606Z,64.60
2023-03-28T22:46:16.403Z,64.56
2023-03-28T22:48:43.985Z,64.70
2023-03-28T22:51:11.930Z,64.85
2023-03-28T22:53:40.109Z,64.86
2023-03-28T22:56:07.434Z,64.55
2023-03-28T22:58:34.003Z,65.05
2023-03-28T23:01:00.704Z,64.76
2023-03-28T23:03:27.576Z,65.00
2023-03-28T23:05:55.211Z,64.81
2023-03-28T23:08:22.265Z,65.09
2023-03-28T23:10:48.884Z,65.12
2023-03-28T23:13:15.322Z,65.00
2023-03-28T23:15:41.792Z,65.29
2023-03-28T23:18:08.454Z,65.10
2023-03-28T23:20:35.688Z,64.53
2023-03-28T23:23:02.128Z,63.28
2023-03-28T23:25:28.788Z,62.89
2023-03-28T23:27:55.883Z,63.07
2023-03-28T23:30:22.638Z,63.26
2023-03-28T23:32:49.111Z,62.41
2023-03-28T23:35:15.722Z,61.33
2023-03-28T23:37:42.223Z,61.55
2023-03-28T23:40:14.852Z,60.48
2023-03-28T23:42:43.969Z,60.73
2023-03-28T23:45:12.090Z,60.80
2023-03-28T23:47:38.601Z,61.18
2023-03-28T23:50:07.063Z,60.88
2023-03-28T23:52:33.598Z,60.71
2023-03-28T23:55:00.188Z,60.36
2023-03-28T23:57:28.615Z,60.53
2023-03-28T23:59:58.058Z,59.84
